sensor_id;sensor_type;location;lat;lon;timestamp;P1;durP1;ratioP1;P2;durP2;ratioP2
23826;SDS011;12094;50.822;4.376;2023-07-08T00:01:14;11.88;;;6.90;;
23826;SDS011;12094;50.822;4.376;2023-07-08T00:03:44;12.50;;;5.97;;
23826;SDS011;12094;50.822;4.376;2023-07-08T00:06:13;10.30;;;6.03;;
23826;SDS011;12094;50.822;4.376;2023-07-08T00:08:49;12.00;;;5.70;;
23826;SDS011;12094;50.822;4.376;2023-07-08T00:11:17;15.70;;;5.70;;
23826;SDS011;12094;50.822;4.376;2023-07-08T00:13:45;15.50;;;6.03;;
23826;SDS011;12094;50.822;4.376;2023-07-08T00:16:18;9.13;;;5.85;;
23826;SDS011;12094;50.822;4.376;2023-07-08T00:18:46;9.63;;;6.07;;
23826;SDS011;12094;50.822;4.376;2023-07-08T00:21:20;9.52;;;5.30;;
23826;SDS011;12094;50.822;4.376;2023-07-08T00:23:48;9.60;;;5.90;;
23826;SDS011;12094;50.822;4.376;2023-07-08T00:26:22;9.95;;;5.82;;
23826;SDS011;12094;50.822;4.376;2023-07-08T00:28:51;11.10;;;5.95;;
23826;SDS011;12094;50.822;4.376;2023-07-08T00:31:19;9.73;;;5.75;;
23826;SDS011;12094;50.822;4.376;2023-07-08T00:33:51;8.65;;;6.05;;
23826;SDS011;12094;50.822;4.376;2023-07-08T00:36:23;13.82;;;6.03;;
23826;SDS011;12094;50.822;4.376;2023-07-08T00:38:52;10.00;;;5.53;;
23826;SDS011;12094;50.822;4.376;2023-07-08T00:41:25;8.65;;;5.50;;
23826;SDS011;12094;50.822;4.376;2023-07-08T00:43:55;9.82;;;5.63;;
23826;SDS011;12094;50.822;4.376;2023-07-08T00:51:33;9.48;;;5.70;;
23826;SDS011;12094;50.822;4.376;2023-07-08T00:54:01;10.25;;;5.57;;
23826;SDS011;12094;50.822;4.376;2023-07-08T00:56:30;14.55;;;5.72;;
23826;SDS011;12094;50.822;4.376;2023-07-08T00:59:01;10.00;;;5.83;;
23826;SDS011;12094;50.822;4.376;2023-07-08T01:01:34;11.55;;;6.15;;
23826;SDS011;12094;50.822;4.376;2023-07-08T01:04:06;10.57;;;5.97;;
23826;SDS011;12094;50.822;4.376;2023-07-08T01:06:38;9.93;;;5.78;;
23826;SDS011;12094;50.822;4.376;2023-07-08T01:09:08;8.55;;;5.55;;
23826;SDS011;12094;50.822;4.376;2023-07-08T01:11:39;11.88;;;5.93;;
23826;SDS011;12094;50.822;4.376;2023-07-08T01:14:08;10.68;;;5.95;;
23826;SDS011;12094;50.822;4.376;2023-07-08T01:16:38;9.88;;;5.68;;
23826;SDS011;12094;50.822;4.376;2023-07-08T01:19:07;10.48;;;5.68;;
23826;SDS011;12094;50.822;4.376;2023-07-08T01:24:19;10.18;;;6.03;;
23826;SDS011;12094;50.822;4.376;2023-07-08T01:26:46;13.63;;;6.50;;
23826;SDS011;12094;50.822;4.376;2023-07-08T01:29:13;10.10;;;6.00;;
23826;SDS011;12094;50.822;4.376;2023-07-08T01:31:40;10.48;;;6.10;;
23826;SDS011;12094;50.822;4.376;2023-07-08T01:34:18;9.50;;;6.18;;
23826;SDS011;12094;50.822;4.376;2023-07-08T01:36:51;12.13;;;7.38;;
23826;SDS011;12094;50.822;4.376;2023-07-08T01:39:22;11.35;;;6.63;;
23826;SDS011;12094;50.822;4.376;2023-07-08T01:41:50;13.15;;;6.55;;
23826;SDS011;12094;50.822;4.376;2023-07-08T01:44:21;11.75;;;6.30;;
23826;SDS011;12094;50.822;4.376;2023-07-08T01:46:58;9.57;;;5.78;;
23826;SDS011;12094;50.822;4.376;2023-07-08T01:49:33;10.18;;;6.97;;
23826;SDS011;12094;50.822;4.376;2023-07-08T01:52:04;11.35;;;6.00;;
23826;SDS011;12094;50.822;4.376;2023-07-08T01:54:32;12.55;;;5.68;;
23826;SDS011;12094;50.822;4.376;2023-07-08T01:56:59;10.43;;;5.93;;
23826;SDS011;12094;50.822;4.376;2023-07-08T01:59:28;9.13;;;5.60;;
23826;SDS011;12094;50.822;4.376;2023-07-08T02:01:57;8.45;;;5.88;;
23826;SDS011;12094;50.822;4.376;2023-07-08T02:04:25;11.00;;;6.03;;
23826;SDS011;12094;50.822;4.376;2023-07-08T02:06:57;9.68;;;5.85;;
23826;SDS011;12094;50.822;4.376;2023-07-08T02:09:26;11.40;;;5.20;;
23826;SDS011;12094;50.822;4.376;2023-07-08T02:11:54;11.43;;;5.35;;
23826;SDS011;12094;50.822;4.376;2023-07-08T02:14:21;11.00;;;5.47;;
23826;SDS011;12094;50.822;4.376;2023-07-08T02:16:49;9.50;;;5.53;;
23826;SDS011;12094;50.822;4.376;2023-07-08T02:19:16;7.65;;;5.32;;
23826;SDS011;12094;50.822;4.376;2023-07-08T02:21:43;10.35;;;5.70;;
23826;SDS011;12094;50.822;4.376;2023-07-08T02:24:10;10.30;;;5.40;;
23826;SDS011;12094;50.822;4.376;2023-07-08T02:26:37;8.95;;;5.72;;
23826;SDS011;12094;50.822;4.376;2023-07-08T02:29:04;10.07;;;5.65;;
23826;SDS011;12094;50.822;4.376;2023-07-08T02:31:31;8.27;;;5.25;;
23826;SDS011;12094;50.822;4.376;2023-07-08T02:33:58;8.38;;;5.38;;
23826;SDS011;12094;50.822;4.376;2023-07-08T02:36:26;9.75;;;6.18;;
23826;SDS011;12094;50.822;4.376;2023-07-08T02:38:53;12.00;;;5.90;;
23826;SDS011;12094;50.822;4.376;2023-07-08T02:41:20;11.20;;;5.90;;
23826;SDS011;12094;50.822;4.376;2023-07-08T02:43:47;9.63;;;5.93;;
23826;SDS011;12094;50.822;4.376;2023-07-08T02:46:14;10.35;;;5.85;;
23826;SDS011;12094;50.822;4.376;2023-07-08T02:48:41;12.68;;;5.65;;
23826;SDS011;12094;50.822;4.376;2023-07-08T02:51:08;12.07;;;6.68;;
23826;SDS011;12094;50.822;4.376;2023-07-08T02:53:35;10.05;;;6.10;;
23826;SDS011;12094;50.822;4.376;2023-07-08T02:56:03;10.55;;;5.80;;
23826;SDS011;12094;50.822;4.376;2023-07-08T02:58:30;10.68;;;5.20;;
23826;SDS011;12094;50.822;4.376;2023-07-08T03:00:57;10.27;;;5.97;;
23826;SDS011;12094;50.822;4.376;2023-07-08T03:03:28;9.57;;;5.80;;
23826;SDS011;12094;50.822;4.376;2023-07-08T03:05:56;8.68;;;5.60;;
23826;SDS011;12094;50.822;4.376;2023-07-08T03:08:29;11.40;;;5.95;;
23826;SDS011;12094;50.822;4.376;2023-07-08T03:10:57;10.63;;;6.03;;
23826;SDS011;12094;50.822;4.376;2023-07-08T03:13:28;13.60;;;5.88;;
23826;SDS011;12094;50.822;4.376;2023-07-08T03:15:57;13.40;;;6.30;;
23826;SDS011;12094;50.822;4.376;2023-07-08T03:18:29;11.68;;;6.30;;
23826;SDS011;12094;50.822;4.376;2023-07-08T03:20:56;9.85;;;5.75;;
23826;SDS011;12094;50.822;4.376;2023-07-08T03:23:25;11.05;;;6.28;;
23826;SDS011;12094;50.822;4.376;2023-07-08T03:25:54;12.38;;;5.95;;
23826;SDS011;12094;50.822;4.376;2023-07-08T03:28:23;9.73;;;6.03;;
23826;SDS011;12094;50.822;4.376;2023-07-08T03:30:52;10.27;;;6.32;;
23826;SDS011;12094;50.822;4.376;2023-07-08T03:33:20;15.95;;;6.38;;
23826;SDS011;12094;50.822;4.376;2023-07-08T03:35:47;8.40;;;6.05;;
23826;SDS011;12094;50.822;4.376;2023-07-08T03:38:15;12.80;;;6.47;;
23826;SDS011;12094;50.822;4.376;2023-07-08T03:40:42;10.40;;;6.40;;
23826;SDS011;12094;50.822;4.376;2023-07-08T03:43:10;10.32;;;6.05;;
23826;SDS011;12094;50.822;4.376;2023-07-08T03:45:39;17.17;;;6.78;;
23826;SDS011;12094;50.822;4.376;2023-07-08T03:48:11;7.73;;;5.67;;
23826;SDS011;12094;50.822;4.376;2023-07-08T03:50:39;13.00;;;6.60;;
23826;SDS011;12094;50.822;4.376;2023-07-08T03:53:08;10.32;;;6.38;;
23826;SDS011;12094;50.822;4.376;2023-07-08T03:55:35;11.38;;;6.45;;
23826;SDS011;12094;50.822;4.376;2023-07-08T03:58:03;12.43;;;6.43;;
23826;SDS011;12094;50.822;4.376;2023-07-08T04:00:35;12.05;;;6.50;;
23826;SDS011;12094;50.822;4.376;2023-07-08T04:03:03;10.57;;;6.32;;
23826;SDS011;12094;50.822;4.376;2023-07-08T04:05:31;12.88;;;6.22;;
23826;SDS011;12094;50.822;4.376;2023-07-08T04:07:59;14.23;;;6.45;;
23826;SDS011;12094;50.822;4.376;2023-07-08T04:10:26;13.25;;;6.63;;
23826;SDS011;12094;50.822;4.376;2023-07-08T04:12:53;9.57;;;6.20;;
23826;SDS011;12094;50.822;4.376;2023-07-08T04:15:20;11.23;;;6.15;;
23826;SDS011;12094;50.822;4.376;2023-07-08T04:17:52;10.45;;;6.35;;
23826;SDS011;12094;50.822;4.376;2023-07-08T04:20:20;12.60;;;6.30;;
23826;SDS011;12094;50.822;4.376;2023-07-08T04:22:47;13.02;;;6.47;;
23826;SDS011;12094;50.822;4.376;2023-07-08T04:25:14;12.55;;;6.43;;
23826;SDS011;12094;50.822;4.376;2023-07-08T04:27:42;7.70;;;5.82;;
23826;SDS011;12094;50.822;4.376;2023-07-08T04:30:14;13.40;;;6.65;;
23826;SDS011;12094;50.822;4.376;2023-07-08T04:32:48;12.07;;;6.43;;
23826;SDS011;12094;50.822;4.376;2023-07-08T04:35:16;12.10;;;6.90;;
23826;SDS011;12094;50.822;4.376;2023-07-08T04:37:43;11.73;;;6.53;;
23826;SDS011;12094;50.822;4.376;2023-07-08T04:40:14;11.57;;;6.22;;
23826;SDS011;12094;50.822;4.376;2023-07-08T04:42:45;13.35;;;6.18;;
23826;SDS011;12094;50.822;4.376;2023-07-08T04:45:17;11.55;;;6.55;;
23826;SDS011;12094;50.822;4.376;2023-07-08T04:47:45;10.95;;;6.30;;
23826;SDS011;12094;50.822;4.376;2023-07-08T04:50:19;10.55;;;6.10;;
23826;SDS011;12094;50.822;4.376;2023-07-08T04:52:46;11.32;;;6.00;;
23826;SDS011;12094;50.822;4.376;2023-07-08T04:55:13;11.88;;;6.28;;
23826;SDS011;12094;50.822;4.376;2023-07-08T04:57:41;9.15;;;6.22;;
23826;SDS011;12094;50.822;4.376;2023-07-08T05:00:09;8.32;;;6.18;;
23826;SDS011;12094;50.822;4.376;2023-07-08T05:02:43;10.40;;;6.70;;
23826;SDS011;12094;50.822;4.376;2023-07-08T05:05:11;12.80;;;6.85;;
23826;SDS011;12094;50.822;4.376;2023-07-08T05:07:38;10.05;;;6.03;;
23826;SDS011;12094;50.822;4.376;2023-07-08T05:10:06;10.07;;;6.70;;
23826;SDS011;12094;50.822;4.376;2023-07-08T05:12:34;15.20;;;6.80;;
23826;SDS011;12094;50.822;4.376;2023-07-08T05:15:02;13.32;;;6.75;;
23826;SDS011;12094;50.822;4.376;2023-07-08T05:17:33;8.90;;;6.38;;
23826;SDS011;12094;50.822;4.376;2023-07-08T05:20:00;12.25;;;6.88;;
23826;SDS011;12094;50.822;4.376;2023-07-08T05:22:27;10.98;;;6.45;;
23826;SDS011;12094;50.822;4.376;2023-07-08T05:24:54;10.63;;;6.57;;
23826;SDS011;12094;50.822;4.376;2023-07-08T05:27:22;12.40;;;6.78;;
23826;SDS011;12094;50.822;4.376;2023-07-08T05:29:49;10.25;;;6.18;;
23826;SDS011;12094;50.822;4.376;2023-07-08T05:32:17;10.60;;;6.55;;
23826;SDS011;12094;50.822;4.376;2023-07-08T05:34:45;14.98;;;7.25;;
23826;SDS011;12094;50.822;4.376;2023-07-08T05:37:13;8.90;;;6.38;;
23826;SDS011;12094;50.822;4.376;2023-07-08T05:39:40;11.98;;;6.50;;
23826;SDS011;12094;50.822;4.376;2023-07-08T05:42:07;11.18;;;6.65;;
23826;SDS011;12094;50.822;4.376;2023-07-08T05:44:34;14.93;;;7.75;;
23826;SDS011;12094;50.822;4.376;2023-07-08T05:47:01;9.48;;;6.45;;
23826;SDS011;12094;50.822;4.376;2023-07-08T05:49:29;9.68;;;6.18;;
23826;SDS011;12094;50.822;4.376;2023-07-08T05:51:56;12.63;;;6.80;;
23826;SDS011;12094;50.822;4.376;2023-07-08T05:54:24;11.15;;;6.60;;
23826;SDS011;12094;50.822;4.376;2023-07-08T05:56:53;13.82;;;6.35;;
23826;SDS011;12094;50.822;4.376;2023-07-08T05:59:20;11.27;;;6.45;;
23826;SDS011;12094;50.822;4.376;2023-07-08T06:01:46;14.80;;;7.43;;
23826;SDS011;12094;50.822;4.376;2023-07-08T06:04:13;10.85;;;6.38;;
23826;SDS011;12094;50.822;4.376;2023-07-08T06:06:40;11.68;;;6.70;;
23826;SDS011;12094;50.822;4.376;2023-07-08T06:09:07;11.23;;;6.43;;
23826;SDS011;12094;50.822;4.376;2023-07-08T06:11:35;10.60;;;6.32;;
23826;SDS011;12094;50.822;4.376;2023-07-08T06:14:02;10.55;;;7.35;;
23826;SDS011;12094;50.822;4.376;2023-07-08T06:16:30;12.30;;;6.20;;
23826;SDS011;12094;50.822;4.376;2023-07-08T06:19:07;13.18;;;7.00;;
23826;SDS011;12094;50.822;4.376;2023-07-08T06:21:34;10.80;;;6.63;;
23826;SDS011;12094;50.822;4.376;2023-07-08T06:24:01;11.15;;;6.97;;
23826;SDS011;12094;50.822;4.376;2023-07-08T06:26:28;9.88;;;6.72;;
23826;SDS011;12094;50.822;4.376;2023-07-08T06:28:55;11.10;;;6.65;;
23826;SDS011;12094;50.822;4.376;2023-07-08T06:31:22;10.98;;;6.72;;
23826;SDS011;12094;50.822;4.376;2023-07-08T06:33:50;18.33;;;7.68;;
23826;SDS011;12094;50.822;4.376;2023-07-08T06:36:17;15.80;;;7.10;;
23826;SDS011;12094;50.822;4.376;2023-07-08T06:38:45;12.38;;;7.38;;
23826;SDS011;12094;50.822;4.376;2023-07-08T06:41:13;15.55;;;7.07;;
23826;SDS011;12094;50.822;4.376;2023-07-08T06:43:40;10.85;;;7.30;;
23826;SDS011;12094;50.822;4.376;2023-07-08T06:46:14;11.05;;;7.13;;
23826;SDS011;12094;50.822;4.376;2023-07-08T06:48:41;12.27;;;7.18;;
23826;SDS011;12094;50.822;4.376;2023-07-08T06:51:08;15.65;;;8.10;;
23826;SDS011;12094;50.822;4.376;2023-07-08T06:53:35;12.90;;;7.53;;
23826;SDS011;12094;50.822;4.376;2023-07-08T06:56:03;16.10;;;8.00;;
23826;SDS011;12094;50.822;4.376;2023-07-08T07:01:02;13.20;;;6.72;;
23826;SDS011;12094;50.822;4.376;2023-07-08T07:03:30;13.85;;;7.60;;
23826;SDS011;12094;50.822;4.376;2023-07-08T07:05:59;10.98;;;6.90;;
23826;SDS011;12094;50.822;4.376;2023-07-08T07:08:26;10.27;;;7.00;;
23826;SDS011;12094;50.822;4.376;2023-07-08T07:10:54;10.68;;;7.40;;
23826;SDS011;12094;50.822;4.376;2023-07-08T07:13:21;17.25;;;7.32;;
23826;SDS011;12094;50.822;4.376;2023-07-08T07:15:52;14.60;;;7.40;;
23826;SDS011;12094;50.822;4.376;2023-07-08T07:18:19;11.98;;;7.40;;
23826;SDS011;12094;50.822;4.376;2023-07-08T07:20:48;15.57;;;7.65;;
23826;SDS011;12094;50.822;4.376;2023-07-08T07:23:18;12.90;;;8.05;;
23826;SDS011;12094;50.822;4.376;2023-07-08T07:25:45;14.27;;;8.02;;
23826;SDS011;12094;50.822;4.376;2023-07-08T07:28:16;12.20;;;7.68;;
23826;SDS011;12094;50.822;4.376;2023-07-08T07:30:46;11.90;;;7.93;;
23826;SDS011;12094;50.822;4.376;2023-07-08T07:33:13;12.88;;;7.82;;
23826;SDS011;12094;50.822;4.376;2023-07-08T07:35:44;13.02;;;8.38;;
23826;SDS011;12094;50.822;4.376;2023-07-08T07:38:13;16.05;;;9.07;;
23826;SDS011;12094;50.822;4.376;2023-07-08T07:40:43;12.57;;;8.75;;
23826;SDS011;12094;50.822;4.376;2023-07-08T07:43:15;15.75;;;7.88;;
23826;SDS011;12094;50.822;4.376;2023-07-08T07:45:42;11.60;;;7.65;;
23826;SDS011;12094;50.822;4.376;2023-07-08T07:48:12;10.95;;;7.90;;
23826;SDS011;12094;50.822;4.376;2023-07-08T07:50:39;11.95;;;7.65;;
23826;SDS011;12094;50.822;4.376;2023-07-08T07:53:06;13.00;;;7.93;;
23826;SDS011;12094;50.822;4.376;2023-07-08T07:55:33;11.23;;;7.50;;
23826;SDS011;12094;50.822;4.376;2023-07-08T07:58:00;14.15;;;8.18;;
23826;SDS011;12094;50.822;4.376;2023-07-08T08:00:28;11.18;;;7.47;;
23826;SDS011;12094;50.822;4.376;2023-07-08T08:02:59;12.25;;;8.18;;
23826;SDS011;12094;50.822;4.376;2023-07-08T08:05:26;15.68;;;8.32;;
23826;SDS011;12094;50.822;4.376;2023-07-08T08:07:54;11.18;;;7.90;;
23826;SDS011;12094;50.822;4.376;2023-07-08T08:10:21;13.75;;;7.95;;
23826;SDS011;12094;50.822;4.376;2023-07-08T08:12:48;13.27;;;8.90;;
23826;SDS011;12094;50.822;4.376;2023-07-08T08:15:20;14.75;;;8.70;;
23826;SDS011;12094;50.822;4.376;2023-07-08T08:17:48;13.55;;;8.70;;
23826;SDS011;12094;50.822;4.376;2023-07-08T08:20:18;12.95;;;8.70;;
23826;SDS011;12094;50.822;4.376;2023-07-08T08:22:46;13.57;;;7.63;;
23826;SDS011;12094;50.822;4.376;2023-07-08T08:25:15;13.23;;;8.63;;
23826;SDS011;12094;50.822;4.376;2023-07-08T08:27:44;12.98;;;8.80;;
23826;SDS011;12094;50.822;4.376;2023-07-08T08:30:11;12.18;;;8.38;;
23826;SDS011;12094;50.822;4.376;2023-07-08T08:32:39;13.68;;;8.07;;
23826;SDS011;12094;50.822;4.376;2023-07-08T08:35:07;13.93;;;9.02;;
23826;SDS011;12094;50.822;4.376;2023-07-08T08:37:35;13.75;;;8.23;;
23826;SDS011;12094;50.822;4.376;2023-07-08T08:40:02;11.18;;;8.25;;
23826;SDS011;12094;50.822;4.376;2023-07-08T08:42:40;14.38;;;8.40;;
23826;SDS011;12094;50.822;4.376;2023-07-08T08:45:13;13.32;;;8.00;;
23826;SDS011;12094;50.822;4.376;2023-07-08T08:47:46;16.63;;;9.07;;
23826;SDS011;12094;50.822;4.376;2023-07-08T08:52:58;12.35;;;7.43;;
23826;SDS011;12094;50.822;4.376;2023-07-08T08:55:27;12.32;;;7.90;;
23826;SDS011;12094;50.822;4.376;2023-07-08T08:58:17;14.40;;;9.10;;
23826;SDS011;12094;50.822;4.376;2023-07-08T09:01:13;14.10;;;8.15;;
23826;SDS011;12094;50.822;4.376;2023-07-08T09:03:47;12.50;;;8.90;;
23826;SDS011;12094;50.822;4.376;2023-07-08T09:06:23;11.73;;;8.65;;
23826;SDS011;12094;50.822;4.376;2023-07-08T09:08:53;16.98;;;8.73;;
23826;SDS011;12094;50.822;4.376;2023-07-08T09:11:40;13.93;;;7.93;;
23826;SDS011;12094;50.822;4.376;2023-07-08T09:14:50;17.92;;;8.40;;
23826;SDS011;12094;50.822;4.376;2023-07-08T09:17:15;16.15;;;9.20;;
23826;SDS011;12094;50.822;4.376;2023-07-08T09:25:49;13.48;;;8.88;;
23826;SDS011;12094;50.822;4.376;2023-07-08T09:28:38;12.13;;;8.27;;
23826;SDS011;12094;50.822;4.376;2023-07-08T09:31:27;13.77;;;8.73;;
23826;SDS011;12094;50.822;4.376;2023-07-08T09:34:36;17.98;;;9.70;;
23826;SDS011;12094;50.822;4.376;2023-07-08T09:37:04;38.08;;;27.05;;
23826;SDS011;12094;50.822;4.376;2023-07-08T09:39:47;16.20;;;9.40;;
23826;SDS011;12094;50.822;4.376;2023-07-08T09:42:15;13.80;;;8.93;;
23826;SDS011;12094;50.822;4.376;2023-07-08T09:44:45;13.75;;;9.05;;
23826;SDS011;12094;50.822;4.376;2023-07-08T09:47:20;13.05;;;8.98;;
23826;SDS011;12094;50.822;4.376;2023-07-08T09:50:27;14.00;;;8.60;;
23826;SDS011;12094;50.822;4.376;2023-07-08T09:52:56;14.93;;;9.32;;
23826;SDS011;12094;50.822;4.376;2023-07-08T09:55:27;13.82;;;9.23;;
23826;SDS011;12094;50.822;4.376;2023-07-08T09:57:55;13.52;;;9.13;;
23826;SDS011;12094;50.822;4.376;2023-07-08T10:00:42;14.23;;;9.23;;
23826;SDS011;12094;50.822;4.376;2023-07-08T10:03:15;15.30;;;9.55;;
23826;SDS011;12094;50.822;4.376;2023-07-08T10:05:48;17.17;;;10.05;;
23826;SDS011;12094;50.822;4.376;2023-07-08T10:11:33;16.88;;;9.48;;
23826;SDS011;12094;50.822;4.376;2023-07-08T10:13:52;31.08;;;17.20;;
23826;SDS011;12094;50.822;4.376;2023-07-08T10:16:41;16.02;;;9.63;;
23826;SDS011;12094;50.822;4.376;2023-07-08T10:19:13;14.35;;;9.45;;
23826;SDS011;12094;50.822;4.376;2023-07-08T10:21:51;15.05;;;9.82;;
23826;SDS011;12094;50.822;4.376;2023-07-08T10:25:08;13.75;;;9.05;;
23826;SDS011;12094;50.822;4.376;2023-07-08T10:27:51;15.02;;;9.43;;
23826;SDS011;12094;50.822;4.376;2023-07-08T10:30:31;12.05;;;8.80;;
23826;SDS011;12094;50.822;4.376;2023-07-08T10:33:22;15.32;;;9.65;;
23826;SDS011;12094;50.822;4.376;2023-07-08T10:36:18;15.48;;;9.43;;
23826;SDS011;12094;50.822;4.376;2023-07-08T10:41:43;15.52;;;9.27;;
23826;SDS011;12094;50.822;4.376;2023-07-08T10:47:15;12.63;;;9.10;;
23826;SDS011;12094;50.822;4.376;2023-07-08T10:53:50;13.20;;;8.52;;
23826;SDS011;12094;50.822;4.376;2023-07-08T10:56:54;14.13;;;9.50;;
23826;SDS011;12094;50.822;4.376;2023-07-08T10:59:34;14.48;;;8.25;;
23826;SDS011;12094;50.822;4.376;2023-07-08T11:02:23;15.02;;;8.50;;
23826;SDS011;12094;50.822;4.376;2023-07-08T11:07:46;13.50;;;8.30;;
23826;SDS011;12094;50.822;4.376;2023-07-08T11:10:22;13.32;;;9.43;;
23826;SDS011;12094;50.822;4.376;2023-07-08T11:18:48;12.30;;;8.77;;
23826;SDS011;12094;50.822;4.376;2023-07-08T11:21:36;14.63;;;8.77;;
23826;SDS011;12094;50.822;4.376;2023-07-08T11:24:14;11.63;;;8.00;;
23826;SDS011;12094;50.822;4.376;2023-07-08T11:27:07;13.63;;;8.90;;
23826;SDS011;12094;50.822;4.376;2023-07-08T11:29:39;11.40;;;8.07;;
23826;SDS011;12094;50.822;4.376;2023-07-08T11:32:11;11.38;;;7.88;;
23826;SDS011;12094;50.822;4.376;2023-07-08T11:34:43;14.20;;;8.17;;
23826;SDS011;12094;50.822;4.376;2023-07-08T11:37:13;13.00;;;7.30;;
23826;SDS011;12094;50.822;4.376;2023-07-08T11:39:45;14.20;;;7.50;;
23826;SDS011;12094;50.822;4.376;2023-07-08T11:45:01;16.05;;;7.40;;
23826;SDS011;12094;50.822;4.376;2023-07-08T11:47:54;11.48;;;6.82;;
23826;SDS011;12094;50.822;4.376;2023-07-08T11:50:33;11.88;;;7.18;;
23826;SDS011;12094;50.822;4.376;2023-07-08T11:58:51;10.73;;;6.45;;
23826;SDS011;12094;50.822;4.376;2023-07-08T12:01:27;15.52;;;6.97;;
23826;SDS011;12094;50.822;4.376;2023-07-08T12:06:41;10.10;;;7.07;;
23826;SDS011;12094;50.822;4.376;2023-07-08T12:09:14;12.23;;;7.00;;
23826;SDS011;12094;50.822;4.376;2023-07-08T12:11:54;9.88;;;6.43;;
23826;SDS011;12094;50.822;4.376;2023-07-08T12:14:27;15.30;;;6.97;;
23826;SDS011;12094;50.822;4.376;2023-07-08T12:16:56;14.32;;;7.05;;
23826;SDS011;12094;50.822;4.376;2023-07-08T12:19:23;14.02;;;7.20;;
23826;SDS011;12094;50.822;4.376;2023-07-08T12:21:58;15.00;;;7.68;;
23826;SDS011;12094;50.822;4.376;2023-07-08T12:24:25;13.60;;;7.95;;
23826;SDS011;12094;50.822;4.376;2023-07-08T12:26:55;12.88;;;8.32;;
23826;SDS011;12094;50.822;4.376;2023-07-08T12:29:24;10.98;;;6.63;;
23826;SDS011;12094;50.822;4.376;2023-07-08T12:31:52;13.73;;;7.65;;
23826;SDS011;12094;50.822;4.376;2023-07-08T12:34:23;16.80;;;7.55;;
23826;SDS011;12094;50.822;4.376;2023-07-08T12:36:53;12.02;;;7.35;;
23826;SDS011;12094;50.822;4.376;2023-07-08T12:39:21;12.20;;;7.63;;
23826;SDS011;12094;50.822;4.376;2023-07-08T12:41:48;17.67;;;8.43;;
23826;SDS011;12094;50.822;4.376;2023-07-08T12:44:18;16.73;;;8.45;;
23826;SDS011;12094;50.822;4.376;2023-07-08T12:46:48;18.60;;;7.82;;
23826;SDS011;12094;50.822;4.376;2023-07-08T12:49:19;11.50;;;7.68;;
23826;SDS011;12094;50.822;4.376;2023-07-08T12:51:47;21.77;;;8.30;;
23826;SDS011;12094;50.822;4.376;2023-07-08T12:54:15;14.75;;;6.45;;
23826;SDS011;12094;50.822;4.376;2023-07-08T12:56:43;13.35;;;6.13;;
23826;SDS011;12094;50.822;4.376;2023-07-08T12:59:19;12.15;;;5.68;;
23826;SDS011;12094;50.822;4.376;2023-07-08T13:01:49;13.60;;;5.03;;
23826;SDS011;12094;50.822;4.376;2023-07-08T13:04:19;9.93;;;5.13;;
23826;SDS011;12094;50.822;4.376;2023-07-08T13:06:46;10.70;;;4.72;;
23826;SDS011;12094;50.822;4.376;2023-07-08T13:09:35;12.77;;;5.32;;
23826;SDS011;12094;50.822;4.376;2023-07-08T13:12:11;10.05;;;5.45;;
23826;SDS011;12094;50.822;4.376;2023-07-08T13:14:41;12.88;;;5.90;;
23826;SDS011;12094;50.822;4.376;2023-07-08T13:17:11;12.15;;;5.32;;
23826;SDS011;12094;50.822;4.376;2023-07-08T13:19:40;13.05;;;6.35;;
23826;SDS011;12094;50.822;4.376;2023-07-08T13:22:18;13.60;;;6.35;;
23826;SDS011;12094;50.822;4.376;2023-07-08T13:24:47;12.90;;;5.93;;
23826;SDS011;12094;50.822;4.376;2023-07-08T13:27:20;16.48;;;5.65;;
23826;SDS011;12094;50.822;4.376;2023-07-08T13:29:52;13.15;;;7.00;;
23826;SDS011;12094;50.822;4.376;2023-07-08T13:32:30;11.88;;;6.03;;
23826;SDS011;12094;50.822;4.376;2023-07-08T13:34:58;14.52;;;6.07;;
23826;SDS011;12094;50.822;4.376;2023-07-08T13:37:25;16.83;;;5.40;;
23826;SDS011;12094;50.822;4.376;2023-07-08T13:39:52;9.85;;;5.65;;
23826;SDS011;12094;50.822;4.376;2023-07-08T13:42:21;13.98;;;5.85;;
23826;SDS011;12094;50.822;4.376;2023-07-08T13:44:48;9.82;;;5.38;;
23826;SDS011;12094;50.822;4.376;2023-07-08T13:47:34;11.35;;;5.35;;
23826;SDS011;12094;50.822;4.376;2023-07-08T13:50:05;10.93;;;4.90;;
23826;SDS011;12094;50.822;4.376;2023-07-08T13:52:43;10.15;;;4.50;;
23826;SDS011;12094;50.822;4.376;2023-07-08T13:55:16;10.90;;;4.53;;
23826;SDS011;12094;50.822;4.376;2023-07-08T13:57:55;10.68;;;4.35;;
23826;SDS011;12094;50.822;4.376;2023-07-08T14:00:26;7.90;;;4.20;;
23826;SDS011;12094;50.822;4.376;2023-07-08T14:02:57;8.73;;;4.23;;
23826;SDS011;12094;50.822;4.376;2023-07-08T14:05:24;7.50;;;3.90;;
23826;SDS011;12094;50.822;4.376;2023-07-08T14:07:52;6.55;;;4.00;;
23826;SDS011;12094;50.822;4.376;2023-07-08T14:10:19;10.38;;;3.92;;
23826;SDS011;12094;50.822;4.376;2023-07-08T14:12:46;8.15;;;4.53;;
23826;SDS011;12094;50.822;4.376;2023-07-08T14:15:16;8.18;;;4.60;;
23826;SDS011;12094;50.822;4.376;2023-07-08T14:17:42;6.60;;;3.97;;
23826;SDS011;12094;50.822;4.376;2023-07-08T14:20:11;7.38;;;4.35;;
23826;SDS011;12094;50.822;4.376;2023-07-08T14:22:39;9.35;;;4.95;;
23826;SDS011;12094;50.822;4.376;2023-07-08T14:25:07;10.50;;;5.43;;
23826;SDS011;12094;50.822;4.376;2023-07-08T14:27:35;10.73;;;5.35;;
23826;SDS011;12094;50.822;4.376;2023-07-08T14:30:02;8.68;;;5.53;;
23826;SDS011;12094;50.822;4.376;2023-07-08T14:32:30;8.90;;;6.05;;
23826;SDS011;12094;50.822;4.376;2023-07-08T14:35:00;9.25;;;5.28;;
23826;SDS011;12094;50.822;4.376;2023-07-08T14:37:40;7.53;;;5.18;;
23826;SDS011;12094;50.822;4.376;2023-07-08T14:40:41;8.07;;;5.57;;
23826;SDS011;12094;50.822;4.376;2023-07-08T14:43:04;9.52;;;5.65;;
23826;SDS011;12094;50.822;4.376;2023-07-08T14:45:40;8.70;;;5.30;;
23826;SDS011;12094;50.822;4.376;2023-07-08T14:48:11;10.25;;;5.55;;
23826;SDS011;12094;50.822;4.376;2023-07-08T14:50:39;8.43;;;5.18;;
23826;SDS011;12094;50.822;4.376;2023-07-08T14:53:06;11.15;;;5.10;;
23826;SDS011;12094;50.822;4.376;2023-07-08T14:55:34;8.48;;;5.80;;
23826;SDS011;12094;50.822;4.376;2023-07-08T14:58:02;8.95;;;5.32;;
23826;SDS011;12094;50.822;4.376;2023-07-08T15:00:29;8.75;;;5.18;;
23826;SDS011;12094;50.822;4.376;2023-07-08T15:02:57;9.40;;;5.43;;
23826;SDS011;12094;50.822;4.376;2023-07-08T15:05:27;9.77;;;5.20;;
23826;SDS011;12094;50.822;4.376;2023-07-08T15:07:55;10.30;;;5.50;;
23826;SDS011;12094;50.822;4.376;2023-07-08T15:10:25;10.10;;;5.72;;
23826;SDS011;12094;50.822;4.376;2023-07-08T15:12:57;11.57;;;5.20;;
23826;SDS011;12094;50.822;4.376;2023-07-08T15:15:30;9.20;;;5.63;;
23826;SDS011;12094;50.822;4.376;2023-07-08T15:17:59;9.05;;;5.43;;
23826;SDS011;12094;50.822;4.376;2023-07-08T15:20:29;8.45;;;5.45;;
23826;SDS011;12094;50.822;4.376;2023-07-08T15:22:57;8.30;;;5.40;;
23826;SDS011;12094;50.822;4.376;2023-07-08T15:25:25;7.90;;;6.07;;
23826;SDS011;12094;50.822;4.376;2023-07-08T15:27:53;12.40;;;7.00;;
23826;SDS011;12094;50.822;4.376;2023-07-08T15:30:27;10.57;;;5.53;;
23826;SDS011;12094;50.822;4.376;2023-07-08T15:33:04;9.98;;;5.82;;
23826;SDS011;12094;50.822;4.376;2023-07-08T15:35:37;8.93;;;5.85;;
23826;SDS011;12094;50.822;4.376;2023-07-08T15:38:04;16.63;;;8.13;;
23826;SDS011;12094;50.822;4.376;2023-07-08T15:40:33;12.05;;;6.80;;
23826;SDS011;12094;50.822;4.376;2023-07-08T15:43:02;9.30;;;5.60;;
23826;SDS011;12094;50.822;4.376;2023-07-08T15:48:04;8.85;;;5.50;;
23826;SDS011;12094;50.822;4.376;2023-07-08T15:50:31;9.60;;;6.10;;
23826;SDS011;12094;50.822;4.376;2023-07-08T15:52:58;12.15;;;5.78;;
23826;SDS011;12094;50.822;4.376;2023-07-08T15:57:55;13.57;;;5.78;;